createdAt,value
2022-12-28T00:03:03.982Z,13.98
2022-12-28T00:06:07.989Z,13.27
2022-12-28T00:09:13.246Z,14.80
2022-12-28T00:12:16.739Z,15.87
2022-12-28T00:15:19.712Z,13.60
2022-12-28T00:18:23.254Z,15.57
2022-12-28T00:21:27.395Z,14.73
2022-12-28T00:24:30.850Z,12.05
2022-12-28T00:27:33.867Z,15.45
2022-12-28T00:30:37.233Z,15.63
2022-12-28T00:33:40.439Z,14.63
2022-12-28T00:37:09.530Z,12.57
2022-12-28T00:40:07.344Z,12.35
2022-12-28T00:43:10.620Z,12.77
2022-12-28T00:46:14.247Z,11.32
2022-12-28T00:49:17.641Z,11.80
2022-12-28T00:52:20.789Z,11.85
2022-12-28T00:55:24.168Z,10.80
2022-12-28T00:58:27.256Z,11.07
2022-12-28T01:01:30.825Z,10.97
2022-12-28T01:04:33.930Z,10.00
2022-12-28T01:07:37.506Z,9.65
2022-12-28T01:10:41.592Z,10.50
2022-12-28T01:13:46.543Z,12.17
2022-12-28T01:16:49.806Z,12.20
2022-12-28T01:19:55.572Z,12.52
2022-12-28T01:22:58.640Z,12.93
2022-12-28T01:26:03.294Z,11.45
2022-12-28T01:29:06.236Z,11.20
2022-12-28T01:32:09.820Z,11.35
2022-12-28T01:35:12.822Z,11.15
2022-12-28T01:38:16.385Z,10.52
2022-12-28T01:41:21.278Z,10.30
2022-12-28T01:44:25.802Z,10.85
2022-12-28T01:47:35.435Z,10.93
2022-12-28T01:50:39.729Z,9.23
2022-12-28T01:53:43.557Z,11.50
2022-12-28T01:56:48.197Z,11.23
2022-12-28T02:00:00.651Z,11.15
2022-12-28T02:03:12.392Z,10.50
2022-12-28T02:06:15.999Z,10.88
2022-12-28T02:09:30.245Z,9.85
2022-12-28T02:12:34.461Z,8.88
2022-12-28T02:15:37.594Z,9.13
2022-12-28T02:18:44.276Z,9.27
2022-12-28T02:22:13.067Z,9.00
2022-12-28T02:25:54.180Z,8.80
2022-12-28T02:29:11.636Z,7.65
2022-12-28T02:32:49.724Z,7.77
2022-12-28T02:36:00.179Z,7.70
2022-12-28T02:39:11.988Z,6.72
2022-12-28T02:42:17.083Z,6.32
2022-12-28T02:45:51.014Z,6.03
2022-12-28T02:49:12.824Z,5.87
2022-12-28T02:52:28.490Z,6.60
2022-12-28T02:56:08.331Z,6.90
2022-12-28T02:59:39.604Z,6.23
2022-12-28T03:02:51.507Z,6.47
2022-12-28T03:06:32.431Z,5.97
2022-12-28T03:09:55.240Z,5.90
2022-12-28T03:13:33.934Z,6.53
2022-12-28T03:17:02.952Z,5.90
2022-12-28T03:20:30.601Z,5.68
2022-12-28T03:23:53.911Z,5.97
2022-12-28T03:27:19.619Z,5.57
2022-12-28T03:30:43.722Z,5.30
2022-12-28T03:33:51.036Z,6.28
2022-12-28T03:37:26.074Z,5.45
2022-12-28T03:40:49.442Z,6.13
2022-12-28T03:43:57.605Z,5.65
2022-12-28T03:51:01.151Z,6.12
2022-12-28T03:54:04.943Z,6.33
2022-12-28T03:57:08.068Z,4.43
2022-12-28T04:00:13.019Z,6.22
2022-12-28T04:03:18.380Z,4.37
2022-12-28T04:06:22.125Z,6.07
2022-12-28T04:09:25.377Z,7.00
2022-12-28T04:12:29.059Z,7.03
2022-12-28T04:15:36.360Z,7.57
2022-12-28T04:18:40.671Z,7.83
2022-12-28T04:21:43.825Z,6.68
2022-12-28T04:24:47.256Z,7.85
2022-12-28T04:27:50.411Z,16.17
2022-12-28T04:30:54.832Z,9.17
2022-12-28T04:33:59.624Z,8.15
2022-12-28T04:37:04.405Z,8.85
2022-12-28T04:40:08.428Z,7.78
2022-12-28T04:43:11.862Z,9.93
2022-12-28T04:46:19.246Z,8.68
2022-12-28T04:49:22.954Z,9.32
2022-12-28T04:52:25.973Z,7.03
2022-12-28T04:55:32.945Z,7.40
2022-12-28T04:58:38.167Z,6.43
2022-12-28T05:01:41.619Z,6.82
2022-12-28T05:04:44.911Z,7.43
2022-12-28T05:07:50.693Z,6.93
2022-12-28T05:10:53.802Z,7.05
2022-12-28T05:13:57.873Z,9.13
2022-12-28T05:17:01.162Z,7.72
2022-12-28T05:20:05.688Z,6.63
2022-12-28T05:23:08.925Z,7.47
2022-12-28T05:26:15.237Z,11.00
2022-12-28T05:29:18.328Z,7.00
2022-12-28T05:32:21.669Z,9.37
2022-12-28T05:35:24.783Z,7.03
2022-12-28T05:38:28.273Z,8.32
2022-12-28T05:41:32.361Z,8.02
2022-12-28T05:44:36.237Z,6.37
2022-12-28T05:47:39.718Z,7.03
2022-12-28T05:50:43.218Z,6.55
2022-12-28T05:53:46.728Z,9.43
2022-12-28T05:56:53.237Z,7.43
2022-12-28T05:59:56.432Z,5.10
2022-12-28T06:03:00.902Z,4.22
2022-12-28T06:06:11.646Z,4.82
2022-12-28T06:09:14.897Z,6.70
2022-12-28T06:12:18.724Z,9.52
2022-12-28T06:15:21.671Z,6.40
2022-12-28T06:18:28.871Z,4.07
2022-12-28T06:21:33.863Z,5.18
2022-12-28T06:24:37.317Z,4.45
2022-12-28T06:27:40.984Z,5.03
2022-12-28T06:30:48.957Z,4.63
2022-12-28T06:33:58.461Z,13.23
2022-12-28T06:37:02.013Z,6.87
2022-12-28T06:40:05.456Z,6.05
2022-12-28T06:43:09.132Z,5.70
2022-12-28T06:46:14.270Z,5.68
2022-12-28T06:49:17.920Z,3.05
2022-12-28T06:52:20.871Z,3.78
2022-12-28T06:55:24.819Z,3.40
2022-12-28T06:58:29.253Z,3.10
2022-12-28T07:01:36.103Z,3.17
2022-12-28T07:04:39.232Z,3.87
2022-12-28T07:07:46.326Z,4.28
2022-12-28T07:10:49.383Z,4.13
2022-12-28T07:13:52.864Z,3.90
2022-12-28T07:16:56.173Z,4.20
2022-12-28T07:19:59.641Z,3.50
2022-12-28T07:23:02.988Z,2.73
2022-12-28T07:26:18.334Z,3.30
2022-12-28T07:29:23.058Z,3.85
2022-12-28T07:32:26.622Z,3.42
2022-12-28T07:35:29.615Z,4.50
2022-12-28T07:38:33.291Z,5.17
2022-12-28T07:41:38.975Z,4.05
2022-12-28T07:44:48.670Z,4.62
2022-12-28T07:47:52.092Z,4.07
2022-12-28T07:50:55.571Z,3.40
2022-12-28T07:54:00.643Z,4.60
2022-12-28T07:57:04.262Z,4.70
2022-12-28T08:00:07.938Z,3.67
2022-12-28T08:03:15.165Z,3.00
2022-12-28T08:06:20.375Z,2.97
2022-12-28T08:09:23.342Z,3.17
2022-12-28T08:12:26.694Z,3.10
2022-12-28T08:15:30.419Z,2.67
2022-12-28T08:18:34.258Z,3.50
2022-12-28T08:21:45.130Z,4.87
2022-12-28T08:24:48.524Z,2.57
2022-12-28T08:27:51.749Z,2.70
2022-12-28T08:30:55.463Z,3.15
2022-12-28T08:34:00.240Z,3.80
2022-12-28T08:37:03.828Z,4.60
2022-12-28T08:40:07.312Z,4.37
2022-12-28T08:43:11.315Z,3.00
2022-12-28T08:46:19.949Z,2.72
2022-12-28T08:49:23.539Z,2.90
2022-12-28T08:52:28.035Z,3.30
2022-12-28T08:55:33.042Z,2.83
2022-12-28T08:58:36.273Z,2.10
2022-12-28T09:01:44.146Z,2.08
2022-12-28T09:04:47.865Z,2.37
2022-12-28T09:10:52.330Z,3.72
2022-12-28T09:13:56.110Z,3.17
2022-12-28T09:16:59.812Z,2.03
2022-12-28T09:20:03.559Z,2.37
2022-12-28T09:23:06.667Z,1.30
2022-12-28T09:28:01.449Z,2.70
2022-12-28T09:31:07.697Z,2.00
2022-12-28T09:37:37.085Z,45.27
2022-12-28T09:44:04.360Z,8.30
2022-12-28T09:47:17.656Z,4.45
2022-12-28T09:50:35.400Z,4.67
2022-12-28T09:53:39.066Z,6.23
2022-12-28T09:56:44.153Z,5.05
2022-12-28T09:59:49.521Z,5.50
2022-12-28T10:03:06.164Z,4.35
2022-12-28T10:06:37.616Z,5.40
2022-12-28T10:09:44.179Z,2.20
2022-12-28T10:12:49.141Z,9.10
2022-12-28T10:15:53.062Z,8.07
2022-12-28T10:18:56.840Z,5.32
2022-12-28T10:22:03.581Z,5.20
2022-12-28T10:26:21.627Z,4.53
2022-12-28T10:29:26.464Z,4.70
2022-12-28T10:32:49.231Z,3.90
2022-12-28T11:01:24.943Z,4.37
2022-12-28T11:04:28.703Z,8.40
2022-12-28T11:07:37.948Z,3.30
2022-12-28T11:10:41.669Z,2.83
2022-12-28T11:16:33.690Z,4.55
2022-12-28T11:19:37.359Z,4.32
2022-12-28T11:22:40.649Z,4.17
2022-12-28T11:25:44.408Z,4.90
2022-12-28T11:28:51.996Z,3.42
2022-12-28T11:32:01.696Z,1.90
2022-12-28T11:35:05.752Z,3.83
2022-12-28T11:38:32.804Z,3.77
2022-12-28T11:41:46.993Z,3.67
2022-12-28T11:45:01.465Z,3.95
2022-12-28T11:48:41.579Z,2.35
2022-12-28T11:51:45.059Z,2.47
2022-12-28T11:55:03.212Z,2.13
2022-12-28T11:58:43.112Z,1.50
2022-12-28T12:01:46.844Z,1.60
2022-12-28T12:04:50.414Z,1.98
2022-12-28T12:07:53.676Z,1.98
2022-12-28T12:11:18.850Z,2.00
2022-12-28T12:14:46.812Z,2.10
2022-12-28T12:18:03.120Z,2.50
2022-12-28T12:21:15.037Z,2.20
2022-12-28T12:24:32.869Z,1.90
2022-12-28T12:27:59.630Z,3.07
2022-12-28T12:31:08.201Z,4.53
2022-12-28T12:34:50.079Z,4.85
2022-12-28T12:38:22.898Z,4.82
2022-12-28T12:41:47.317Z,7.03
2022-12-28T12:44:59.484Z,3.27
2022-12-28T12:48:27.045Z,2.90
2022-12-28T12:51:45.433Z,3.15
2022-12-28T12:55:22.452Z,3.22
2022-12-28T12:58:30.132Z,2.30
2022-12-28T13:01:48.339Z,2.27
2022-12-28T13:04:52.188Z,4.20
2022-12-28T13:07:58.541Z,1.92
2022-12-28T13:11:02.309Z,2.42
2022-12-28T13:14:07.103Z,8.90
2022-12-28T13:17:18.021Z,1.60
2022-12-28T13:20:22.281Z,1.90
2022-12-28T13:23:27.216Z,1.85
2022-12-28T13:26:30.387Z,1.73
2022-12-28T13:29:39.521Z,2.75
2022-12-28T13:32:52.029Z,2.30
2022-12-28T13:36:10.557Z,2.67
2022-12-28T13:39:14.818Z,1.75
2022-12-28T13:42:43.031Z,2.00
2022-12-28T13:45:50.930Z,2.00
2022-12-28T13:48:58.237Z,2.73
2022-12-28T13:52:02.103Z,2.77
2022-12-28T13:55:12.470Z,2.65
2022-12-28T13:58:20.396Z,2.75
2022-12-28T14:01:27.400Z,2.53
2022-12-28T14:07:56.919Z,3.53
2022-12-28T14:11:01.935Z,3.33
2022-12-28T14:14:05.990Z,2.42
2022-12-28T14:17:10.604Z,1.70
2022-12-28T14:20:14.398Z,3.10
2022-12-28T14:23:23.699Z,4.03
2022-12-28T14:26:27.142Z,3.00
2022-12-28T14:29:35.997Z,2.53
2022-12-28T14:32:43.085Z,1.83
2022-12-28T14:35:51.784Z,3.90
2022-12-28T14:42:25.091Z,1.85
2022-12-28T14:46:06.831Z,3.33
2022-12-28T14:49:29.573Z,3.08
2022-12-28T14:52:42.294Z,2.90
2022-12-28T14:56:00.819Z,3.57
2022-12-28T14:59:04.484Z,3.15
2022-12-28T15:00:16.045Z,4.50
2022-12-28T15:02:33.700Z,3.55
2022-12-28T15:05:40.269Z,2.70
2022-12-28T15:08:43.647Z,2.60
2022-12-28T15:11:46.887Z,2.37
2022-12-28T15:14:50.434Z,3.17
2022-12-28T15:17:53.660Z,3.92
2022-12-28T15:20:57.684Z,3.15
2022-12-28T15:24:00.782Z,2.30
2022-12-28T15:27:04.677Z,3.60
2022-12-28T15:30:11.902Z,5.28
2022-12-28T15:33:18.581Z,2.17
2022-12-28T15:36:22.590Z,2.72
2022-12-28T15:39:26.117Z,2.23
2022-12-28T15:42:31.489Z,3.90
2022-12-28T15:45:41.773Z,2.45
2022-12-28T15:48:47.738Z,3.17
2022-12-28T15:51:51.573Z,3.60
2022-12-28T15:54:54.671Z,2.27
2022-12-28T15:57:58.532Z,3.67
2022-12-28T16:01:02.061Z,4.53
2022-12-28T16:04:10.935Z,3.60
2022-12-28T16:07:14.452Z,2.70
2022-12-28T16:10:19.501Z,2.40
2022-12-28T16:13:22.771Z,2.93
2022-12-28T16:16:30.123Z,2.87
2022-12-28T16:19:33.627Z,2.90
2022-12-28T16:22:37.206Z,4.93
2022-12-28T16:25:40.373Z,3.57
2022-12-28T16:28:44.590Z,3.23
2022-12-28T16:31:47.968Z,2.55
2022-12-28T16:34:51.713Z,2.25
2022-12-28T16:37:55.291Z,2.37
2022-12-28T16:40:59.293Z,3.80
2022-12-28T16:44:04.744Z,3.00
2022-12-28T16:47:11.572Z,2.08
2022-12-28T16:50:17.533Z,3.03
2022-12-28T16:53:24.591Z,3.08
2022-12-28T16:56:28.577Z,3.53
2022-12-28T16:59:32.205Z,3.23
2022-12-28T17:02:35.732Z,8.52
2022-12-28T17:05:39.661Z,7.30
2022-12-28T17:08:43.543Z,6.07
2022-12-28T17:11:49.206Z,2.73
2022-12-28T17:14:52.859Z,2.70
2022-12-28T17:17:56.936Z,4.22
2022-12-28T17:21:06.326Z,3.75
2022-12-28T17:24:11.203Z,3.55
2022-12-28T17:27:18.820Z,2.40
2022-12-28T17:30:23.001Z,3.20
2022-12-28T17:33:26.112Z,2.85
2022-12-28T17:36:30.397Z,2.55
2022-12-28T17:39:39.617Z,3.20
2022-12-28T17:42:44.290Z,2.40
2022-12-28T17:45:48.284Z,4.33
2022-12-28T17:48:53.941Z,3.55
2022-12-28T17:51:57.654Z,2.55
2022-12-28T17:55:01.594Z,3.20
2022-12-28T17:58:05.264Z,2.17
2022-12-28T18:01:10.302Z,1.87
2022-12-28T18:04:14.178Z,3.10
2022-12-28T18:07:17.910Z,2.95
2022-12-28T18:10:22.886Z,2.28
2022-12-28T18:13:26.563Z,4.43
2022-12-28T18:16:30.374Z,3.10
2022-12-28T18:19:33.870Z,4.35
2022-12-28T18:22:37.935Z,3.80
2022-12-28T18:25:41.686Z,2.20
2022-12-28T18:28:46.316Z,2.40
2022-12-28T18:31:50.207Z,3.83
2022-12-28T18:34:54.693Z,3.87
2022-12-28T18:37:58.476Z,4.70
2022-12-28T18:41:02.649Z,4.75
2022-12-28T18:44:07.808Z,4.60
2022-12-28T18:47:12.574Z,4.80
2022-12-28T18:50:16.530Z,4.45
2022-12-28T18:53:22.832Z,4.47
2022-12-28T18:56:26.868Z,4.30
2022-12-28T18:59:31.044Z,4.43
2022-12-28T19:02:35.259Z,4.90
2022-12-28T19:05:39.202Z,5.30
2022-12-28T19:08:42.527Z,2.78
2022-12-28T19:11:46.984Z,4.75
2022-12-28T19:14:50.592Z,4.30
2022-12-28T19:17:54.490Z,4.00
2022-12-28T19:20:59.504Z,5.03
2022-12-28T19:24:10.361Z,2.70
2022-12-28T19:27:13.759Z,3.78
2022-12-28T19:30:17.961Z,4.53
2022-12-28T19:33:21.732Z,5.37
2022-12-28T19:36:26.015Z,6.82
2022-12-28T19:39:29.843Z,6.03
2022-12-28T19:42:34.184Z,6.55
2022-12-28T19:45:37.942Z,2.47
2022-12-28T19:48:41.930Z,4.57
2022-12-28T19:51:45.356Z,5.28
2022-12-28T19:54:48.836Z,4.70
2022-12-28T19:57:52.789Z,6.20
2022-12-28T20:01:03.977Z,3.37
2022-12-28T20:04:13.601Z,3.05
2022-12-28T20:07:18.544Z,3.92
2022-12-28T20:10:22.745Z,3.12
2022-12-28T20:13:26.761Z,2.83
2022-12-28T20:16:33.720Z,2.63
2022-12-28T20:19:38.012Z,2.33
2022-12-28T20:22:42.540Z,4.20
2022-12-28T20:25:54.843Z,4.30
2022-12-28T20:29:01.271Z,3.08
2022-12-28T20:32:05.277Z,3.10
2022-12-28T20:35:10.117Z,4.00
2022-12-28T20:38:13.835Z,4.95
2022-12-28T20:41:40.060Z,6.30
2022-12-28T20:44:43.812Z,4.90
2022-12-28T20:47:48.173Z,4.77
2022-12-28T20:51:01.749Z,4.10
2022-12-28T20:54:06.304Z,3.42
2022-12-28T20:57:10.361Z,5.03
2022-12-28T21:00:14.945Z,3.62
2022-12-28T21:03:18.578Z,4.63
2022-12-28T21:06:23.075Z,4.85
2022-12-28T21:09:27.083Z,4.40
2022-12-28T21:12:30.761Z,4.53
2022-12-28T21:15:40.201Z,4.32
2022-12-28T21:18:44.965Z,4.87
2022-12-28T21:21:49.072Z,4.00
2022-12-28T21:24:53.013Z,4.00
2022-12-28T21:27:56.836Z,4.32
2022-12-28T21:31:03.497Z,4.47
2022-12-28T21:34:07.064Z,5.07
2022-12-28T21:37:29.382Z,3.92
2022-12-28T21:40:33.436Z,3.97
2022-12-28T21:43:37.514Z,3.95
2022-12-28T21:46:41.629Z,3.67
2022-12-28T21:49:45.336Z,4.80
2022-12-28T21:52:48.637Z,3.00
2022-12-28T21:55:52.207Z,5.03
2022-12-28T21:58:56.521Z,4.93
2022-12-28T22:02:19.511Z,5.03
2022-12-28T22:05:41.633Z,4.07
2022-12-28T22:09:03.322Z,3.10
2022-12-28T22:12:25.806Z,4.47
2022-12-28T22:15:47.489Z,3.97
2022-12-28T22:19:02.296Z,3.65
2022-12-28T22:22:06.088Z,3.33
2022-12-28T22:25:12.330Z,3.97
2022-12-28T22:28:15.832Z,3.03
2022-12-28T22:31:20.072Z,3.87
2022-12-28T22:34:23.409Z,3.55
2022-12-28T22:37:27.005Z,2.53
2022-12-28T22:40:30.321Z,3.87
2022-12-28T22:43:34.053Z,3.17
2022-12-28T22:46:37.181Z,2.92
2022-12-28T22:49:40.592Z,3.60
2022-12-28T22:52:44.190Z,1.93
2022-12-28T22:56:00.498Z,3.35
2022-12-28T22:59:05.096Z,3.42
2022-12-28T23:02:09.184Z,2.80
2022-12-28T23:05:12.473Z,4.85
2022-12-28T23:08:15.954Z,3.07
2022-12-28T23:11:38.619Z,4.62
2022-12-28T23:15:00.625Z,4.40
2022-12-28T23:18:22.490Z,4.37
2022-12-28T23:21:44.295Z,3.92
2022-12-28T23:25:06.205Z,3.03
2022-12-28T23:28:12.901Z,3.97
2022-12-28T23:31:16.105Z,4.65
2022-12-28T23:34:19.818Z,3.55
2022-12-28T23:37:23.204Z,3.35
2022-12-28T23:40:27.690Z,4.40
2022-12-28T23:43:30.720Z,3.37
2022-12-28T23:46:34.383Z,3.08
2022-12-28T23:49:37.617Z,2.95
2022-12-28T23:52:41.567Z,2.33
2022-12-28T23:55:44.675Z,1.80
2022-12-28T23:58:51.397Z,3.58
